createdAt,value
2022-08-20T00:00:19.290Z,22.40
2022-08-20T00:03:23.358Z,22.30
2022-08-20T00:05:55.988Z,22.30
2022-08-20T00:08:24.225Z,22.30
2022-08-20T00:10:55.709Z,22.30
2022-08-20T00:13:31.496Z,22.30
2022-08-20T00:15:58.523Z,21.90
2022-08-20T00:18:30.402Z,22.00
2022-08-20T00:20:58.300Z,22.10
2022-08-20T00:23:29.933Z,22.00
2022-08-20T00:25:56.835Z,22.10
2022-08-20T00:28:23.696Z,22.00
2022-08-20T00:30:50.642Z,21.70
2022-08-20T00:33:27.974Z,21.40
2022-08-20T00:36:08.379Z,21.30
2022-08-20T00:38:38.941Z,21.20
2022-08-20T00:41:11.557Z,21.10
2022-08-20T00:43:45.289Z,21.10
2022-08-20T00:46:21.081Z,21.30
2022-08-20T00:49:14.846Z,21.40
2022-08-20T00:55:22.709Z,21.30
2022-08-20T00:58:02.141Z,21.10
2022-08-20T01:00:47.112Z,21.10
2022-08-20T01:03:17.787Z,21.00
2022-08-20T01:05:47.955Z,21.10
2022-08-20T01:08:17.243Z,21.10
2022-08-20T01:10:48.212Z,21.20
2022-08-20T01:13:20.800Z,21.20
2022-08-20T01:15:51.634Z,21.30
2022-08-20T01:18:25.259Z,21.30
2022-08-20T01:20:57.768Z,21.30
2022-08-20T01:23:44.705Z,21.20
2022-08-20T01:26:18.953Z,21.30
2022-08-20T01:28:48.037Z,21.30
2022-08-20T01:31:18.430Z,21.30
2022-08-20T01:33:52.516Z,21.30
2022-08-20T01:36:44.242Z,21.20
2022-08-20T01:39:19.717Z,21.20
2022-08-20T01:42:11.478Z,21.20
2022-08-20T01:45:26.893Z,20.80
2022-08-20T01:48:35.713Z,20.90
2022-08-20T01:51:09.247Z,21.00
2022-08-20T01:54:20.867Z,21.10
2022-08-20T01:57:20.075Z,21.10
2022-08-20T01:59:50.031Z,21.10
2022-08-20T02:02:16.997Z,21.10
2022-08-20T02:04:44.210Z,21.10
2022-08-20T02:07:18.262Z,21.10
2022-08-20T02:09:45.655Z,21.10
2022-08-20T02:12:14.359Z,21.10
2022-08-20T02:14:47.618Z,21.10
2022-08-20T02:17:15.023Z,21.00
2022-08-20T02:19:46.685Z,21.10
2022-08-20T02:22:38.510Z,21.20
2022-08-20T02:25:09.202Z,21.10
2022-08-20T02:31:09.770Z,21.10
2022-08-20T02:34:21.634Z,21.10
2022-08-20T02:36:33.221Z,21.20
2022-08-20T02:39:00.124Z,21.20
2022-08-20T02:41:27.027Z,21.10
2022-08-20T02:43:53.943Z,21.00
2022-08-20T02:46:36.583Z,21.00
2022-08-20T02:49:19.926Z,21.00
2022-08-20T02:51:46.959Z,21.10
2022-08-20T02:54:14.445Z,21.20
2022-08-20T02:56:42.046Z,21.20
2022-08-20T02:59:08.995Z,21.20
2022-08-20T03:01:39.620Z,21.20
2022-08-20T03:04:06.962Z,21.20
2022-08-20T03:06:33.841Z,21.20
2022-08-20T03:09:00.853Z,21.20
2022-08-20T03:11:27.697Z,21.20
2022-08-20T03:13:54.565Z,21.10
2022-08-20T03:16:21.832Z,21.20
2022-08-20T03:18:52.009Z,20.70
2022-08-20T03:21:21.270Z,20.80
2022-08-20T03:23:48.367Z,20.90
2022-08-20T03:26:16.458Z,21.00
2022-08-20T03:28:43.871Z,21.00
2022-08-20T03:31:14.954Z,21.10
2022-08-20T03:33:48.847Z,21.00
2022-08-20T03:36:26.698Z,21.10
2022-08-20T03:39:17.833Z,21.10
2022-08-20T03:41:44.743Z,21.20
2022-08-20T03:44:11.676Z,21.20
2022-08-20T03:46:53.571Z,21.30
2022-08-20T03:49:20.605Z,21.20
2022-08-20T03:51:57.950Z,21.10
2022-08-20T03:54:27.306Z,20.90
2022-08-20T03:57:29.029Z,21.00
2022-08-20T04:01:36.890Z,20.90
2022-08-20T04:04:52.840Z,21.00
2022-08-20T04:07:27.669Z,20.40
2022-08-20T04:10:05.426Z,20.30
2022-08-20T04:12:32.414Z,20.30
2022-08-20T04:15:02.200Z,20.40
2022-08-20T04:17:32.515Z,20.30
2022-08-20T04:19:59.588Z,20.00
2022-08-20T04:22:26.564Z,20.00
2022-08-20T04:24:56.049Z,20.20
2022-08-20T04:27:22.890Z,19.60
2022-08-20T04:29:49.856Z,19.80
2022-08-20T04:32:17.010Z,20.00
2022-08-20T04:34:56.436Z,20.10
2022-08-20T04:37:23.625Z,20.10
2022-08-20T04:40:09.752Z,20.10
2022-08-20T04:42:37.636Z,19.90
2022-08-20T04:45:06.969Z,20.00
2022-08-20T04:47:35.039Z,19.90
2022-08-20T04:50:02.106Z,19.90
2022-08-20T04:52:29.423Z,19.90
2022-08-20T04:54:58.966Z,19.80
2022-08-20T04:57:26.443Z,19.80
2022-08-20T04:59:59.299Z,19.80
2022-08-20T05:02:26.433Z,19.90
2022-08-20T05:04:53.278Z,20.00
2022-08-20T05:07:20.326Z,20.10
2022-08-20T05:09:47.166Z,20.20
2022-08-20T05:12:18.115Z,20.10
2022-08-20T05:14:45.040Z,20.20
2022-08-20T05:17:14.631Z,20.10
2022-08-20T05:19:42.221Z,20.20
2022-08-20T05:22:09.026Z,20.00
2022-08-20T05:24:45.480Z,20.00
2022-08-20T05:27:19.853Z,20.00
2022-08-20T05:29:53.398Z,20.10
2022-08-20T05:32:22.562Z,20.10
2022-08-20T05:35:02.180Z,20.20
2022-08-20T05:37:47.155Z,20.10
2022-08-20T05:40:15.052Z,20.20
2022-08-20T05:43:02.166Z,20.20
2022-08-20T05:48:28.278Z,20.30
2022-08-20T05:51:02.996Z,20.10
2022-08-20T05:53:29.991Z,20.30
2022-08-20T05:55:56.864Z,20.20
2022-08-20T05:58:29.292Z,20.10
2022-08-20T06:00:56.327Z,19.80
2022-08-20T06:03:41.877Z,19.80
2022-08-20T06:06:20.701Z,19.80
2022-08-20T06:08:56.974Z,19.70
2022-08-20T06:11:23.900Z,19.50
2022-08-20T06:13:50.842Z,19.50
2022-08-20T06:16:17.779Z,19.60
2022-08-20T06:18:44.775Z,19.70
2022-08-20T06:21:14.721Z,19.80
2022-08-20T06:23:56.963Z,19.50
2022-08-20T06:26:30.984Z,19.50
2022-08-20T06:29:06.903Z,19.50
2022-08-20T06:31:35.107Z,19.50
2022-08-20T06:34:02.014Z,19.50
2022-08-20T06:36:28.961Z,19.60
2022-08-20T06:38:58.381Z,19.80
2022-08-20T06:41:32.602Z,19.80
2022-08-20T06:44:03.768Z,19.80
2022-08-20T06:46:30.533Z,19.80
2022-08-20T06:48:59.569Z,19.70
2022-08-20T06:51:26.455Z,19.80
2022-08-20T06:53:53.709Z,19.90
2022-08-20T06:56:20.869Z,20.00
2022-08-20T06:58:50.509Z,20.10
2022-08-20T07:01:27.355Z,20.10
2022-08-20T07:03:59.656Z,19.70
2022-08-20T07:06:27.022Z,19.80
2022-08-20T07:08:55.752Z,19.80
2022-08-20T07:11:27.661Z,19.60
2022-08-20T07:13:59.686Z,19.40
2022-08-20T07:16:27.342Z,19.40
2022-08-20T07:18:58.404Z,19.60
2022-08-20T07:21:25.900Z,19.50
2022-08-20T07:23:53.469Z,19.60
2022-08-20T07:26:20.459Z,19.60
2022-08-20T07:28:47.367Z,19.50
2022-08-20T07:31:34.897Z,19.60
2022-08-20T07:34:02.832Z,19.70
2022-08-20T07:36:30.162Z,19.80
2022-08-20T07:38:57.592Z,20.10
2022-08-20T07:41:24.975Z,19.90
2022-08-20T07:43:52.132Z,19.70
2022-08-20T07:46:21.892Z,20.10
2022-08-20T07:48:54.533Z,20.10
2022-08-20T07:51:22.554Z,20.10
2022-08-20T07:53:51.873Z,19.90
2022-08-20T07:56:24.374Z,19.90
2022-08-20T07:58:55.612Z,20.10
2022-08-20T08:01:30.012Z,20.20
2022-08-20T08:04:05.151Z,20.40
2022-08-20T08:06:32.255Z,20.40
2022-08-20T08:09:06.059Z,20.40
2022-08-20T08:11:37.906Z,20.40
2022-08-20T08:19:01.275Z,20.20
2022-08-20T08:21:53.847Z,20.30
2022-08-20T08:24:24.309Z,20.70
2022-08-20T08:26:53.507Z,20.80
2022-08-20T08:29:23.558Z,20.60
2022-08-20T08:35:09.310Z,20.60
2022-08-20T08:38:19.781Z,20.40
2022-08-20T08:40:48.482Z,20.60
2022-08-20T08:53:56.676Z,20.90
2022-08-20T08:56:34.188Z,20.70
2022-08-20T08:59:20.649Z,20.80
2022-08-20T09:02:05.885Z,20.80
2022-08-20T09:12:12.285Z,21.00
2022-08-20T09:15:19.948Z,21.00
2022-08-20T09:17:46.916Z,21.00
2022-08-20T09:20:13.977Z,20.80
2022-08-20T09:22:41.258Z,20.70
2022-08-20T09:25:19.504Z,21.10
2022-08-20T09:27:49.275Z,21.10
2022-08-20T09:30:44.142Z,21.30
2022-08-20T09:33:12.959Z,21.40
2022-08-20T09:35:42.898Z,21.10
2022-08-20T09:38:09.830Z,21.10
2022-08-20T09:40:39.409Z,21.30
2022-08-20T09:43:10.974Z,21.50
2022-08-20T09:45:40.163Z,21.20
2022-08-20T09:48:10.150Z,21.10
2022-08-20T09:50:41.397Z,21.20
2022-08-20T09:53:08.293Z,20.90
2022-08-20T09:55:41.937Z,21.20
2022-08-20T09:58:32.771Z,21.30
2022-08-20T10:01:04.314Z,21.30
2022-08-20T10:03:31.076Z,21.30
2022-08-20T10:06:00.136Z,21.30
2022-08-20T10:08:27.182Z,21.20
2022-08-20T10:10:57.526Z,21.20
2022-08-20T10:13:26.627Z,21.10
2022-08-20T10:15:53.428Z,21.10
2022-08-20T10:18:22.690Z,21.00
2022-08-20T10:20:51.756Z,21.10
2022-08-20T10:23:18.505Z,21.20
2022-08-20T10:25:45.313Z,21.30
2022-08-20T10:28:12.465Z,21.30
2022-08-20T10:30:39.215Z,21.60
2022-08-20T10:33:06.508Z,21.70
2022-08-20T10:35:35.900Z,21.50
2022-08-20T10:38:04.984Z,21.50
2022-08-20T10:40:31.828Z,21.40
2022-08-20T10:42:58.725Z,21.60
2022-08-20T10:45:25.843Z,21.80
2022-08-20T10:47:52.754Z,21.90
2022-08-20T10:50:21.920Z,22.00
2022-08-20T10:52:48.677Z,22.20
2022-08-20T10:55:18.147Z,22.40
2022-08-20T10:57:45.265Z,22.40
2022-08-20T11:00:19.291Z,22.60
2022-08-20T11:02:46.297Z,22.80
2022-08-20T11:05:13.157Z,23.10
2022-08-20T11:07:55.791Z,23.20
2022-08-20T11:10:28.042Z,22.90
2022-08-20T11:12:55.360Z,22.60
2022-08-20T11:15:24.338Z,22.50
2022-08-20T11:17:51.174Z,22.50
2022-08-20T11:20:21.474Z,23.00
2022-08-20T11:22:48.288Z,22.80
2022-08-20T11:25:19.735Z,22.60
2022-08-20T11:27:49.040Z,23.00
2022-08-20T11:30:23.724Z,22.90
2022-08-20T11:32:50.541Z,23.10
2022-08-20T11:38:10.932Z,22.70
2022-08-20T11:40:37.808Z,22.70
2022-08-20T11:43:20.051Z,22.80
2022-08-20T11:45:52.600Z,23.00
2022-08-20T11:48:19.612Z,23.10
2022-08-20T11:50:47.850Z,23.40
2022-08-20T11:53:15.525Z,23.40
2022-08-20T11:55:43.141Z,22.90
2022-08-20T11:58:14.371Z,23.20
2022-08-20T12:00:41.286Z,23.60
2022-08-20T12:03:09.753Z,24.00
2022-08-20T12:05:45.925Z,24.30
2022-08-20T12:08:25.292Z,24.30
2022-08-20T12:10:59.014Z,24.50
2022-08-20T12:13:48.464Z,24.30
2022-08-20T12:16:19.512Z,24.60
2022-08-20T12:18:47.462Z,24.80
2022-08-20T12:21:15.114Z,24.90
2022-08-20T12:23:41.953Z,25.20
2022-08-20T12:26:08.804Z,25.10
2022-08-20T12:28:35.602Z,25.30
2022-08-20T12:31:02.463Z,25.60
2022-08-20T12:33:29.228Z,25.70
2022-08-20T12:35:57.450Z,25.00
2022-08-20T12:38:24.249Z,25.50
2022-08-20T12:40:51.095Z,26.10
2022-08-20T12:43:20.585Z,26.20
2022-08-20T12:45:53.925Z,26.20
2022-08-20T12:48:21.188Z,26.20
2022-08-20T12:50:50.238Z,26.00
2022-08-20T12:53:18.570Z,25.90
2022-08-20T12:55:46.093Z,25.40
2022-08-20T12:58:13.062Z,25.10
2022-08-20T13:00:46.520Z,24.80
2022-08-20T13:03:20.984Z,25.00
2022-08-20T13:05:49.052Z,25.30
2022-08-20T13:08:28.042Z,25.80
2022-08-20T13:10:55.097Z,26.30
2022-08-20T13:16:27.539Z,26.10
2022-08-20T13:29:48.314Z,30.00
2022-08-20T13:32:15.437Z,29.90
2022-08-20T13:34:42.362Z,29.30
2022-08-20T13:37:26.978Z,28.20
2022-08-20T13:39:55.140Z,28.50
2022-08-20T13:42:22.229Z,28.70
2022-08-20T13:44:49.622Z,28.30
2022-08-20T13:47:23.062Z,28.90
2022-08-20T13:49:56.118Z,29.20
2022-08-20T13:52:25.709Z,29.40
2022-08-20T13:54:53.053Z,29.10
2022-08-20T13:57:21.426Z,28.70
2022-08-20T13:59:51.143Z,29.90
2022-08-20T14:02:18.101Z,30.70
2022-08-20T14:04:46.380Z,29.60
2022-08-20T14:07:22.223Z,28.90
2022-08-20T14:09:54.195Z,29.00
2022-08-20T14:12:23.175Z,29.90
2022-08-20T14:14:51.835Z,31.00
2022-08-20T14:17:31.586Z,30.50
2022-08-20T14:20:07.714Z,30.30
2022-08-20T14:22:36.758Z,31.10
2022-08-20T14:25:05.874Z,30.30
2022-08-20T14:27:34.077Z,30.40
2022-08-20T14:30:02.616Z,30.80
2022-08-20T14:32:29.708Z,30.70
2022-08-20T14:34:59.126Z,31.50
2022-08-20T14:37:32.935Z,32.10
2022-08-20T14:40:02.331Z,31.30
2022-08-20T14:42:30.067Z,31.40
2022-08-20T14:44:58.770Z,31.50
2022-08-20T14:47:29.018Z,31.40
2022-08-20T14:50:02.228Z,31.30
2022-08-20T14:52:29.792Z,31.60
2022-08-20T14:54:56.629Z,31.90
2022-08-20T14:57:23.917Z,32.20
2022-08-20T14:59:53.335Z,32.90
2022-08-20T15:02:20.319Z,33.20
2022-08-20T15:04:52.261Z,32.10
2022-08-20T15:07:32.065Z,32.20
2022-08-20T15:10:00.555Z,32.20
2022-08-20T15:12:28.336Z,33.20
2022-08-20T15:14:55.272Z,33.50
2022-08-20T15:17:25.326Z,33.70
2022-08-20T15:19:53.191Z,33.30
2022-08-20T15:22:20.706Z,33.20
2022-08-20T15:24:47.669Z,33.20
2022-08-20T15:27:23.467Z,33.40
2022-08-20T15:29:51.419Z,32.80
2022-08-20T15:32:19.878Z,32.60
2022-08-20T15:34:47.286Z,33.00
2022-08-20T15:37:18.504Z,33.20
2022-08-20T15:39:45.644Z,33.00
2022-08-20T15:42:12.992Z,32.90
2022-08-20T15:44:42.174Z,32.40
2022-08-20T15:47:26.226Z,33.20
2022-08-20T15:50:09.360Z,32.80
2022-08-20T15:52:43.348Z,33.20
2022-08-20T15:55:14.770Z,32.30
2022-08-20T15:58:00.768Z,31.80
2022-08-20T16:01:24.386Z,31.50
2022-08-20T16:04:11.208Z,30.60
2022-08-20T16:06:38.375Z,28.90
2022-08-20T16:09:33.793Z,29.30
2022-08-20T16:12:17.761Z,28.80
2022-08-20T16:14:47.680Z,28.20
2022-08-20T16:17:47.131Z,28.20
2022-08-20T16:20:26.431Z,28.00
2022-08-20T16:23:05.210Z,27.70
2022-08-20T16:33:06.797Z,27.60
2022-08-20T16:35:43.790Z,27.20
2022-08-20T16:38:35.729Z,26.90
2022-08-20T16:41:11.930Z,27.30
2022-08-20T16:43:53.546Z,27.40
2022-08-20T16:46:35.004Z,27.20
2022-08-20T16:49:13.284Z,27.00
2022-08-20T16:51:51.674Z,27.10
2022-08-20T16:54:29.335Z,27.30
2022-08-20T16:57:03.963Z,26.80
2022-08-20T16:59:33.996Z,26.80
2022-08-20T17:02:10.453Z,26.90
2022-08-20T17:05:00.054Z,26.80
2022-08-20T17:07:33.447Z,26.80
2022-08-20T17:10:26.031Z,27.00
2022-08-20T17:13:00.713Z,27.10
2022-08-20T17:15:30.614Z,27.10
2022-08-20T17:17:57.498Z,26.80
2022-08-20T17:20:28.041Z,26.60
2022-08-20T17:23:18.355Z,26.70
2022-08-20T17:26:19.510Z,26.70
2022-08-20T17:28:52.537Z,26.80
2022-08-20T17:31:42.082Z,26.60
2022-08-20T17:34:20.388Z,26.40
2022-08-20T17:37:02.268Z,26.50
2022-08-20T17:39:31.577Z,26.50
2022-08-20T17:42:11.103Z,26.40
2022-08-20T17:44:47.944Z,26.40
2022-08-20T17:47:17.422Z,26.40
2022-08-20T17:50:02.600Z,26.40
2022-08-20T17:52:50.021Z,26.10
2022-08-20T17:55:18.045Z,25.90
2022-08-20T17:57:50.373Z,25.90
2022-08-20T18:00:23.466Z,25.80
2022-08-20T18:02:56.921Z,25.80
2022-08-20T18:05:28.698Z,25.50
2022-08-20T18:08:19.748Z,25.60
2022-08-20T18:11:06.043Z,25.60
2022-08-20T18:14:04.193Z,25.60
2022-08-20T18:17:01.611Z,25.60
2022-08-20T18:19:56.395Z,25.40
2022-08-20T18:22:32.625Z,25.20
2022-08-20T18:25:28.055Z,25.20
2022-08-20T18:28:03.871Z,25.20
2022-08-20T18:30:36.686Z,25.20
2022-08-20T18:33:10.184Z,25.20
2022-08-20T18:35:45.521Z,25.20
2022-08-20T18:38:31.720Z,25.20
2022-08-20T18:41:32.644Z,25.10
2022-08-20T18:44:34.209Z,25.20
2022-08-20T18:47:20.870Z,25.20
2022-08-20T18:49:58.274Z,25.00
2022-08-20T18:52:31.710Z,24.80
2022-08-20T18:55:04.965Z,24.80
2022-08-20T18:57:57.438Z,24.80
2022-08-20T19:00:28.696Z,24.90
2022-08-20T19:03:18.619Z,24.90
2022-08-20T19:05:45.301Z,24.80
2022-08-20T19:08:37.504Z,24.70
2022-08-20T19:11:14.926Z,24.70
2022-08-20T19:14:15.512Z,24.60
2022-08-20T19:16:56.990Z,24.60
2022-08-20T19:19:32.834Z,24.60
2022-08-20T19:22:01.979Z,24.60
2022-08-20T19:24:32.615Z,24.60
2022-08-20T19:27:04.437Z,24.50
2022-08-20T19:29:35.686Z,24.50
2022-08-20T19:32:08.662Z,24.50
2022-08-20T19:34:36.612Z,24.40
2022-08-20T19:37:34.890Z,24.40
2022-08-20T19:40:08.182Z,24.30
2022-08-20T19:42:42.981Z,24.30
2022-08-20T19:45:23.965Z,24.30
2022-08-20T19:48:01.200Z,24.20
2022-08-20T19:50:37.547Z,24.20
2022-08-20T19:53:31.757Z,24.10
2022-08-20T19:56:06.419Z,24.00
2022-08-20T19:58:35.329Z,24.00
2022-08-20T20:01:04.161Z,24.00
2022-08-20T20:03:37.813Z,24.00
2022-08-20T20:06:17.559Z,23.90
2022-08-20T20:09:13.655Z,23.80
2022-08-20T20:11:42.006Z,23.80
2022-08-20T20:14:15.035Z,23.70
2022-08-20T20:16:45.715Z,23.80
2022-08-20T20:19:26.285Z,23.70
2022-08-20T20:22:19.004Z,23.70
2022-08-20T20:24:50.737Z,23.70
2022-08-20T20:27:26.612Z,23.60
2022-08-20T20:30:25.933Z,23.50
2022-08-20T20:32:56.758Z,23.50
2022-08-20T20:35:33.319Z,23.40
2022-08-20T20:38:03.815Z,23.40
2022-08-20T20:40:45.232Z,23.40
2022-08-20T20:43:23.900Z,23.30
2022-08-20T20:46:00.710Z,23.20
2022-08-20T20:48:40.233Z,23.10
2022-08-20T20:51:27.179Z,23.00
2022-08-20T20:53:58.529Z,22.90
2022-08-20T20:56:37.739Z,22.80
2022-08-20T20:59:08.474Z,22.80
2022-08-20T21:01:48.321Z,22.80
2022-08-20T21:04:17.831Z,22.80
2022-08-20T21:06:49.278Z,22.70
2022-08-20T21:09:21.366Z,22.60
2022-08-20T21:11:50.882Z,22.60
2022-08-20T21:14:22.810Z,22.50
2022-08-20T21:16:52.510Z,22.60
2022-08-20T21:19:19.424Z,22.30
2022-08-20T21:21:50.586Z,22.30
2022-08-20T21:24:17.383Z,22.30
2022-08-20T21:26:47.012Z,22.30
2022-08-20T21:29:21.047Z,22.30
2022-08-20T21:31:55.655Z,22.30
2022-08-20T21:34:27.203Z,22.30
2022-08-20T21:36:54.234Z,22.20
2022-08-20T21:39:23.034Z,22.20
2022-08-20T21:41:53.601Z,22.20
2022-08-20T21:44:25.998Z,22.20
2022-08-20T21:46:56.410Z,22.10
2022-08-20T21:49:24.867Z,22.10
2022-08-20T21:51:52.211Z,22.10
2022-08-20T21:54:19.895Z,22.20
2022-08-20T21:56:57.420Z,22.10
2022-08-20T21:59:27.853Z,22.10
2022-08-20T22:01:55.136Z,22.10
2022-08-20T22:04:26.882Z,22.00
2022-08-20T22:06:53.765Z,22.00
2022-08-20T22:09:20.546Z,21.90
2022-08-20T22:11:54.673Z,21.90
2022-08-20T22:14:23.465Z,21.90
2022-08-20T22:16:52.786Z,21.80
2022-08-20T22:19:19.631Z,21.80
2022-08-20T22:21:49.464Z,21.80
2022-08-20T22:24:19.311Z,21.80
2022-08-20T22:26:48.543Z,21.80
2022-08-20T22:29:15.611Z,21.80
2022-08-20T22:31:44.961Z,21.70
2022-08-20T22:34:19.038Z,21.70
2022-08-20T22:36:45.990Z,21.70
2022-08-20T22:39:12.807Z,21.60
2022-08-20T22:41:40.178Z,21.60
2022-08-20T22:44:07.329Z,21.60
2022-08-20T22:46:42.497Z,21.60
2022-08-20T22:49:22.417Z,21.50
2022-08-20T22:51:53.805Z,21.50
2022-08-20T22:54:24.584Z,21.50
2022-08-20T22:56:54.991Z,21.50
2022-08-20T22:59:26.853Z,21.50
2022-08-20T23:01:56.564Z,21.50
2022-08-20T23:04:33.294Z,21.40
2022-08-20T23:07:01.685Z,21.40
2022-08-20T23:09:31.664Z,21.40
2022-08-20T23:11:58.709Z,21.30
2022-08-20T23:14:27.391Z,21.30
2022-08-20T23:17:04.964Z,21.30
2022-08-20T23:19:32.587Z,21.30
2022-08-20T23:22:01.463Z,21.20
2022-08-20T23:24:28.300Z,21.20
2022-08-20T23:26:55.395Z,21.10
2022-08-20T23:29:25.819Z,21.10
2022-08-20T23:31:56.822Z,21.10
2022-08-20T23:34:26.790Z,21.10
2022-08-20T23:36:55.274Z,21.10
2022-08-20T23:39:22.722Z,21.10
2022-08-20T23:41:49.687Z,21.10
2022-08-20T23:44:26.053Z,21.10
2022-08-20T23:47:00.044Z,21.00
2022-08-20T23:49:28.168Z,21.00
2022-08-20T23:52:00.414Z,21.00
2022-08-20T23:54:29.202Z,20.90
2022-08-20T23:56:58.436Z,21.00
2022-08-20T23:59:26.121Z,20.90
